Portada
METAR-TAF:

METAR-TAF

Aeropuertos :

Kunming, China

Aeropuerto Internacional de Kunming-Changshui

latitud: 25-01N, longitud: 102-41E, altitud: 1892 m

Observación

El informe se hizo hace 47 minutos, a las 20:00 UTC
Viento 2 kt con dirección variable
Temperatura 17°C
Humedad 94%
Presión 1018 hPa
Visibilidad 10 km o más
Nubes dispersas a una altura de 2300 ft
Cielo nuboso a una altura de 4300 ft

METAR: ZPPP 242000Z VRB01MPS 9999 SCT023 BKN043 17/16 Q1018 NOSIG

Hora: 04:47 (20:47 UTC)

Pronóstico

El informe se hizo hace 7 horas y 43 minutos, a las 13:04 UTC
Pronóstico válido del 24 a las 18 UTC al 25 a las 18 UTC
Viento 8 kt del este-noreste
Visibilidad 10 km o más
Nubes dispersas a una altura de 2300 ft
Cielo nuboso a una altura de 4000 ft

TAF: ZPPP 241304Z 2418/2518 06004MPS 9999 SCT023 BKN040 TX26/2508Z TN16/2423Z

Observaciones y pronósticos meteorológicos de más de 4000 aeropuertos (mensajes METAR y TAF).

Los puntos amarillos y rojos representan las estaciones disponibles.

Ponga el ratón en el punto deseado para ver el nombre de la estación.

Haga clic para ver las observaciones y los pronósticos meteorológicos.

Para cambiar el mapa : haga clic en los botones verdes con una cruz de color negro para hacer un zoom, en el botón verde con un guión para alejar o en las flechas verdes para mapas adyacentes.


METAR-TAF: